Time;durP1;ratioP1;P1;durP2;ratioP2;P2;SDS_P1;SDS_P2;PMS_P1;PMS_P2;Temp;Humidity;BMP_temperature;BMP_pressure;BME280_temperature;BME280_humidity;BME280_pressure;Samples;Min_cycle;Max_cycle;Signal;HPM_P1;HPM_P2
2022/11/02 00:04:25;;;;;;;17.9;23.7;;;;;;;11.7;85.1;99210;;;;
2022/11/02 00:14:25;;;;;;;17.9;23.7;;;;;;;11.7;85.2;99200;;;;
2022/11/02 00:25:25;;;;;;;17.9;23.7;;;;;;;11.8;85;99200;;;;
2022/11/02 00:35:25;;;;;;;15.3;20.5;;;;;;;11.8;84.8;99200;;;;
2022/11/02 00:46:25;;;;;;;15.3;20.5;;;;;;;11.8;84.5;99200;;;;
2022/11/02 00:56:25;;;;;;;15.3;20.5;;;;;;;11.8;84.7;99210;;;;
2022/11/02 01:06:25;;;;;;;15.1;18.5;;;;;;;11.8;84.5;99210;;;;
2022/11/02 01:17:25;;;;;;;15.1;18.5;;;;;;;11.7;84.6;99210;;;;
2022/11/02 01:28:25;;;;;;;15.1;18.5;;;;;;;11.6;84.7;99200;;;;
2022/11/02 01:38:25;;;;;;;16.1;19.3;;;;;;;11.6;84.8;99200;;;;
2022/11/02 01:49:25;;;;;;;16.1;19.3;;;;;;;11.5;85;99200;;;;
2022/11/02 01:59:25;;;;;;;16.1;19.3;;;;;;;11.5;85;99210;;;;
2022/11/02 02:10:25;;;;;;;16.9;22;;;;;;;11.5;85.1;99220;;;;
2022/11/02 02:21:25;;;;;;;16.9;22;;;;;;;11.5;85.7;99220;;;;
2022/11/02 02:32:25;;;;;;;16;21.1;;;;;;;11.4;85.9;99220;;;;
2022/11/02 02:43:25;;;;;;;16;21.1;;;;;;;11.2;85.9;99220;;;;
2022/11/02 02:54:25;;;;;;;16;21.1;;;;;;;11.1;86.4;99220;;;;
2022/11/02 03:04:25;;;;;;;16.4;21.5;;;;;;;11;86.9;99240;;;;
2022/11/02 03:14:25;;;;;;;16.4;21.5;;;;;;;11;87.3;99240;;;;
2022/11/02 03:25:25;;;;;;;16.4;21.5;;;;;;;10.9;87.3;99240;;;;
2022/11/02 03:35:25;;;;;;;15.7;20.9;;;;;;;10.8;87.2;99250;;;;
2022/11/02 03:46:25;;;;;;;15.7;20.9;;;;;;;10.5;87.5;99250;;;;
2022/11/02 03:56:25;;;;;;;15.7;20.9;;;;;;;10.4;87.7;99250;;;;
2022/11/02 04:07:25;;;;;;;16.2;23.5;;;;;;;10.2;88.5;99260;;;;
2022/11/02 04:27:26;;;;;;;16.2;23.5;;;;;;;10;89.6;99260;;;;
2022/11/02 04:38:41;;;;;;;14.6;20.3;;;;;;;10.1;89.7;99270;;;;
2022/11/02 04:48:25;;;;;;;14.6;20.3;;;;;;;10;89.4;99280;;;;
2022/11/02 04:59:25;;;;;;;14.6;20.3;;;;;;;10.2;89.3;99280;;;;
2022/11/02 05:09:25;;;;;;;16.3;21.8;;;;;;;10.3;89.3;99270;;;;
2022/11/02 05:20:25;;;;;;;16.3;21.8;;;;;;;10.2;89.9;99290;;;;
2022/11/02 05:30:25;;;;;;;17;24.4;;;;;;;10.4;89.9;99290;;;;
2022/11/02 05:40:25;;;;;;;17;24.4;;;;;;;10.5;89.8;99290;;;;
2022/11/02 05:51:25;;;;;;;17;24.4;;;;;;;10.6;89.4;99300;;;;
2022/11/02 06:02:26;;;;;;;17.4;20.8;;;;;;;10.7;88.8;99310;;;;
2022/11/02 06:12:25;;;;;;;17.4;20.8;;;;;;;10.7;88.6;99320;;;;
2022/11/02 06:22:25;;;;;;;17.4;20.8;;;;;;;11;88.7;99320;;;;
2022/11/02 06:33:25;;;;;;;17.7;22.2;;;;;;;11.3;88.2;99320;;;;
2022/11/02 06:44:25;;;;;;;17.7;22.2;;;;;;;11.4;87.6;99340;;;;
2022/11/02 06:55:25;;;;;;;17.7;22.2;;;;;;;11.6;87.6;99330;;;;
2022/11/02 07:06:25;;;;;;;16.7;21.1;;;;;;;11.8;86.8;99340;;;;
2022/11/02 07:16:26;;;;;;;16.7;21.1;;;;;;;12.1;86.5;99350;;;;
2022/11/02 07:27:25;;;;;;;16.7;21.1;;;;;;;12.1;85.6;99330;;;;
2022/11/02 07:37:25;;;;;;;20.6;24.4;;;;;;;12.1;85.4;99330;;;;
2022/11/02 07:47:26;;;;;;;20.6;24.4;;;;;;;12.1;85.7;99320;;;;
2022/11/02 07:57:25;;;;;;;20.6;24.4;;;;;;;12.3;85.4;99330;;;;
2022/11/02 08:08:25;;;;;;;22;31.3;;;;;;;12.5;84.9;99330;;;;
2022/11/02 08:19:25;;;;;;;22;31.3;;;;;;;12.8;84.2;99320;;;;
2022/11/02 08:29:26;;;;;;;22;31.3;;;;;;;12.9;83.9;99320;;;;
2022/11/02 08:39:26;;;;;;;15.8;18.6;;;;;;;13.2;83.5;99310;;;;
2022/11/02 08:50:25;;;;;;;15.8;18.6;;;;;;;13.9;82.8;99310;;;;
2022/11/02 09:00:26;;;;;;;15.8;20.6;;;;;;;14.3;81;99300;;;;
2022/11/02 09:10:26;;;;;;;15.8;20.6;;;;;;;14.9;79.6;99300;;;;
2022/11/02 09:21:25;;;;;;;15.8;20.6;;;;;;;15;78.5;99290;;;;
2022/11/02 09:31:28;;;;;;;13.2;18.5;;;;;;;15.1;78.1;99290;;;;
2022/11/02 09:42:25;;;;;;;13.2;18.5;;;;;;;15.5;77.2;99280;;;;
2022/11/02 09:53:26;;;;;;;13.2;18.5;;;;;;;15.9;76.1;99270;;;;
2022/11/02 10:04:26;;;;;;;13.3;20.3;;;;;;;16.2;72.9;99260;;;;
2022/11/02 10:14:25;;;;;;;13.3;20.3;;;;;;;16.4;71.7;99260;;;;
2022/11/02 10:25:26;;;;;;;13.3;20.3;;;;;;;16.6;71.8;99250;;;;
2022/11/02 10:36:26;;;;;;;9.6;14.1;;;;;;;16.9;71.3;99250;;;;
2022/11/02 10:47:26;;;;;;;9.6;14.1;;;;;;;17.2;69.2;99240;;;;
2022/11/02 10:58:26;;;;;;;9.6;14.1;;;;;;;17.2;67.8;99230;;;;
2022/11/02 11:09:28;;;;;;;8.4;15.5;;;;;;;17.2;67.6;99230;;;;
2022/11/02 11:20:25;;;;;;;8.4;15.5;;;;;;;17.4;66.1;99240;;;;
2022/11/02 11:30:25;;;;;;;5.7;10.5;;;;;;;17.5;64.4;99230;;;;
2022/11/02 11:40:26;;;;;;;5.7;10.5;;;;;;;17.6;64.8;99220;;;;
2022/11/02 11:50:26;;;;;;;5.7;10.5;;;;;;;17.1;65.5;99230;;;;
2022/11/02 12:01:26;;;;;;;4.8;8.5;;;;;;;16.9;65.6;99230;;;;
2022/11/02 12:12:26;;;;;;;4.8;8.5;;;;;;;17.1;62.3;99230;;;;
2022/11/02 12:23:26;;;;;;;4.8;8.5;;;;;;;17.4;61.5;99220;;;;
2022/11/02 12:34:26;;;;;;;4.1;7;;;;;;;17.5;62.3;99210;;;;
2022/11/02 12:45:26;;;;;;;4.1;7;;;;;;;17.5;62.7;99200;;;;
2022/11/02 12:56:26;;;;;;;4.1;7;;;;;;;17.4;63.1;99200;;;;
2022/11/02 13:06:26;;;;;;;5.1;9.5;;;;;;;17.4;63.8;99200;;;;
2022/11/02 13:17:26;;;;;;;5.1;9.5;;;;;;;17.4;63.3;99190;;;;
2022/11/02 13:27:26;;;;;;;5.1;9.5;;;;;;;17.3;63.6;99200;;;;
2022/11/02 13:38:26;;;;;;;5.4;12;;;;;;;17.2;63.6;99200;;;;
2022/11/02 13:48:26;;;;;;;5.4;12;;;;;;;17.1;65.2;99190;;;;
2022/11/02 13:59:26;;;;;;;5.4;12;;;;;;;16.8;66.6;99200;;;;
2022/11/02 14:09:26;;;;;;;6.4;9.8;;;;;;;16.6;67.4;99220;;;;
2022/11/02 14:19:26;;;;;;;6.4;9.8;;;;;;;16.2;69.5;99220;;;;
2022/11/02 14:30:26;;;;;;;8.5;16.2;;;;;;;15.9;69.7;99220;;;;
2022/11/02 14:40:26;;;;;;;8.5;16.2;;;;;;;15.7;69.2;99230;;;;
2022/11/02 14:51:26;;;;;;;8.5;16.2;;;;;;;15.3;70.4;99230;;;;
2022/11/02 15:01:26;;;;;;;7;11.2;;;;;;;15;71.2;99220;;;;
2022/11/02 15:11:26;;;;;;;7;11.2;;;;;;;14.7;72.3;99230;;;;
2022/11/02 15:22:26;;;;;;;7;11.2;;;;;;;14.3;73.3;99240;;;;
2022/11/02 15:32:26;;;;;;;6.5;11.4;;;;;;;14;74.1;99240;;;;
2022/11/02 15:43:26;;;;;;;6.5;11.4;;;;;;;13.6;74.5;99250;;;;
2022/11/02 15:54:26;;;;;;;6.5;11.4;;;;;;;13.3;75;99270;;;;
2022/11/02 16:04:26;;;;;;;6;9.3;;;;;;;13.1;75.7;99280;;;;
2022/11/02 16:15:26;;;;;;;6;9.3;;;;;;;12.9;76;99300;;;;
2022/11/02 16:26:26;;;;;;;6;9.3;;;;;;;12.7;76.4;99300;;;;
2022/11/02 16:37:26;;;;;;;7.9;13.7;;;;;;;12.4;76.6;99310;;;;
2022/11/02 16:48:26;;;;;;;7.9;13.7;;;;;;;12.2;77.9;99320;;;;
2022/11/02 16:58:26;;;;;;;7.9;13.7;;;;;;;12.1;78.5;99330;;;;
2022/11/02 17:09:26;;;;;;;10.2;18.4;;;;;;;12;78.7;99340;;;;
2022/11/02 17:19:26;;;;;;;10.2;18.4;;;;;;;12;79.4;99340;;;;
2022/11/02 17:30:26;;;;;;;11.1;16.3;;;;;;;12;79.2;99360;;;;
2022/11/02 17:51:26;;;;;;;11.1;16.3;;;;;;;11.9;79.1;99370;;;;
2022/11/02 18:02:26;;;;;;;10.8;13.8;;;;;;;11.9;79.1;99380;;;;
2022/11/02 18:12:26;;;;;;;10.8;13.8;;;;;;;11.9;79;99390;;;;
2022/11/02 18:23:26;;;;;;;10.8;13.8;;;;;;;12;78.9;99390;;;;
2022/11/02 18:34:26;;;;;;;13;21.1;;;;;;;12;78.7;99400;;;;
2022/11/02 18:44:26;;;;;;;13;21.1;;;;;;;12.1;78.6;99410;;;;
2022/11/02 18:54:26;;;;;;;13;21.1;;;;;;;12.2;78.5;99410;;;;
2022/11/02 19:04:26;;;;;;;11.5;16.6;;;;;;;12.2;78.2;99410;;;;
2022/11/02 19:15:26;;;;;;;11.5;16.6;;;;;;;12.3;78;99420;;;;
2022/11/02 19:26:26;;;;;;;11.5;16.6;;;;;;;12.3;78;99420;;;;
2022/11/02 19:36:26;;;;;;;12.2;16.7;;;;;;;12.2;77.6;99440;;;;
2022/11/02 19:47:26;;;;;;;12.2;16.7;;;;;;;12.2;77.8;99460;;;;
2022/11/02 19:57:26;;;;;;;12.2;16.7;;;;;;;12.2;77.5;99450;;;;
2022/11/02 20:08:26;;;;;;;12.6;16.6;;;;;;;11.9;77.9;99460;;;;
2022/11/02 20:18:26;;;;;;;12.6;16.6;;;;;;;11.9;78.4;99460;;;;
2022/11/02 20:29:26;;;;;;;12.5;15.8;;;;;;;12;78.3;99470;;;;
2022/11/02 20:39:26;;;;;;;12.5;15.8;;;;;;;12.1;78.1;99470;;;;
2022/11/02 20:49:27;;;;;;;12.5;15.8;;;;;;;12.1;77.9;99470;;;;
2022/11/02 21:00:26;;;;;;;13.1;17.6;;;;;;;12.1;77.9;99480;;;;
2022/11/02 21:22:26;;;;;;;13.1;17.6;;;;;;;11.7;78.4;99480;;;;
2022/11/02 21:32:26;;;;;;;18.8;25.9;;;;;;;11.5;79.1;99470;;;;
2022/11/02 21:39:41;;;;;;;18.8;25.9;;;;;;;11.5;79.2;99470;;;;
2022/11/02 21:49:41;;;;;;;18.8;25.9;;;;;;;11.4;79;99470;;;;
2022/11/02 22:01:47;;;;;;;15.1;20.3;;;;;;;11.4;79.6;99480;;;;
2022/11/02 22:11:42;;;;;;;15.1;20.3;;;;;;;11.5;79.5;99490;;;;
2022/11/02 22:21:41;;;;;;;15.1;20.3;;;;;;;11.7;78.9;99490;;;;
2022/11/02 22:31:41;;;;;;;15.1;20.3;;;;;;;11.8;78.7;99490;;;;
2022/11/02 22:41:41;;;;;;;14.9;21.7;;;;;;;11.6;78.8;99490;;;;
2022/11/02 22:51:41;;;;;;;14.9;21.7;;;;;;;11.4;79.1;99500;;;;
2022/11/02 23:01:41;;;;;;;15.5;23.5;;;;;;;10.9;78.9;99500;;;;
2022/11/02 23:12:41;;;;;;;15.5;23.5;;;;;;;10.5;80;99510;;;;
2022/11/02 23:33:41;;;;;;;14.2;20.8;;;;;;;9.7;81.5;99520;;;;
2022/11/02 23:44:41;;;;;;;14.2;20.8;;;;;;;9.4;81.9;99520;;;;
